[x] [x]
.:Aeroklub Partizánske:. |  .:Fotogaléria:. |  .:Videogaléria:. |  .:Foto týždňa:. |  .:Kniha návštev:. |  .:Linky:. |  .:Moje konto:.
 MENU [x]

 METEO [x]

 FotoGaléria [x]

 Slnko [x]
LZPT Partizánske
48°37'N 18°20'E
Východ: 5:45 AM
Západ: 7:55 PM
LZIB Bratislava
48°10'N 17°12'E
Východ: 5:50 AM
Západ: 7:59 PM
LZKZ Košice
48°39'N 21°14'E
Východ: 5:33 AM
Západ: 7:44 PM

 Jazyky [x]
Vyberte jazyk rozhrania:

Slovak English German Polish


  SPRÁVY METAR - SLOVENSKO
Bratislava-IvankaLZIB 201430Z 31009KT 270V340 CAVOK 19/11 Q1016 NOSIGdekóduj
Kamenica nad CirochouLZKC 011200Z 21006KT 150V290 9999 FEW053 04/M07 Q1019dekóduj
KošiceLZKZ 201430Z 36003KT 330V050 9999 SCT030 BKN100 22/10 Q1015 NOSIGdekóduj
Poprad - TatryLZTT 201430Z 09003KT 9999 FEW033 SCT053 BKN090 18/11 Q1017 NOSIGdekóduj
LučenecLZLU 141110Z AUTO 08009KT //// ////// 02/01 Q0994dekóduj
NitraLZNI 312000Z /////KT CAVOK 01/M02 Q1022dekóduj
PrievidzaLZPE 312000Z /////KT CAVOK M03/M04 Q1022dekóduj
PiešťanyLZPP 201430Z 31010KT CAVOK 19/12 Q1016dekóduj
SliačLZSL 201430Z 15002KT CAVOK 19/14 Q1015dekóduj
ŽilinaLZZI 201430Z 27005KT 240V300 CAVOK 19/14 Q1016dekóduj
 FreeFly INFO [x]
COROWA 2009


COROWA 2009


COROWA 2009



 LZPT webcam [x]

 Foto týždňa [x]

 KBO SNA [x]

 Login [x]
Užívateľské meno

Heslo


Ešte nemáš konto? Môžeš si ho vytvoriť. Registrovaný užívateľ má množstvo výhod, napr. posielanie okamžitých správ iným užívateľom, posielanie komentárov s vlastným menom, možnosť pridávať fotografie do galérie...

 Kto je online [x]
Momentálne je online 29 hostí a 0 členov.

Ste anonymný užívateľ. Zaregistrovať sa môžete tu

DETAILY

 Linky [x]

 Počítadlo návštev [x]
Zaznamenali sme
33425811
strán zobrazených od júna 2003

Počet dnešných unikátnych IP adries:
0



www.freefly.sk
Powered by SzMsoft ©2003-2005. Polish translations by Cezary Dąbek. Flying server www.freefly.sk is administrated by maro@freefly.sk - www.artweb.freefly.sk
PHP-Nuke Copyright © 2004 by Francisco Burzi. This is free software, and you may redistribute it under the GPL. PHP-Nuke comes with absolutely no warranty, for details, see the license.